Lake Tahoe, California
Current Conditions -  °F | °C
As of 1:53 AM on Tuesday 21 Oct 2014 (Local Time) from KTVL Reporting Station
Clear Clear  
Wind Chill:   Ceiling: Unl
Heat Index:   Visibility: 10mi
Dew Point: -2°   Wind: 13mph
Humidity: 65%   Direction: 180°S
Pressure: 30.09"   Gusts: 21mph
Location:  38.9°N, 120°W
Report Text: KTVL 210853Z AUTO 18011G18KT 10SM CLR 04/M02 A3009 RMK AO2 SLP151 60000 T00391022 53016
Loading
Personal Weather Stations






























Interactive Weather Map
Tropical Storm Tracking
New forecast layout! Learn more

10-Day Weather Forecast

Advertisements
Track Severe Weather on mobile